Time;durP1;ratioP1;P1;durP2;ratioP2;P2;SDS_P1;SDS_P2;PMS_P1;PMS_P2;Temp;Humidity;BMP_temperature;BMP_pressure;BME280_temperature;BME280_humidity;BME280_pressure;Samples;Min_cycle;Max_cycle;Signal;HPM_P1;HPM_P2
2022/08/30 00:02:00;;;;;;;;;15.50;13.00;;;;;24.72;52.53;100696.81;146603;646;46018;-79
2022/08/30 00:04:54;;;;;;;;;14.25;13.00;;;;;24.74;52.36;100696.81;146606;643;46018;-77
2022/08/30 00:07:46;;;;;;;;;14.00;13.00;;;;;24.82;52.84;100709.09;146605;690;46915;-70
2022/08/30 00:10:44;;;;;;;;;16.50;13.00;;;;;24.82;53.07;100709.09;146602;566;46008;-72
2022/08/30 00:13:58;;;;;;;;;;;;;;;;;;;;;
2022/08/30 00:16:53;;;;;;;;;12.50;11.75;;;;;24.80;52.99;100699.41;146606;743;46019;-68
2022/08/30 00:20:01;;;;;;;;;12.75;12.25;;;;;24.78;53.62;100704.72;146604;647;46012;-70
2022/08/30 00:22:57;;;;;;;;;15.50;15.00;;;;;24.77;53.61;100702.97;146606;711;46018;-73
2022/08/30 00:25:49;;;;;;;;;15.25;14.50;;;;;24.77;53.99;100702.09;146606;611;46010;-71
2022/08/30 00:29:06;;;;;;;;;;;;;;;;;;;;;
2022/08/30 00:32:20;;;;;;;;;;;;;;;;;;;;;
2022/08/30 00:35:23;;;;;;;;;17.00;14.25;;;;;24.91;54.86;100694.87;146605;618;46019;-70
2022/08/30 00:38:23;;;;;;;;;21.25;15.50;;;;;24.97;55.06;100693.97;146604;661;46018;-70
2022/08/30 00:41:25;;;;;;;;;16.25;12.75;;;;;24.96;54.41;100687.78;146606;675;46010;-69
2022/08/30 00:44:20;;;;;;;;;17.00;15.75;;;;;24.98;54.40;100685.09;146599;705;47010;-68
2022/08/30 00:47:16;;;;;;;;;18.50;14.75;;;;;25.01;54.03;100679.78;146605;564;46018;-67
2022/08/30 00:50:21;;;;;;;;;18.50;15.00;;;;;25.09;53.56;100693.84;146605;619;46018;-69
2022/08/30 00:53:27;;;;;;;;;18.75;16.00;;;;;25.16;53.87;100700.91;146606;588;46018;-69
2022/08/30 00:56:45;;;;;;;;;17.50;16.50;;;;;23.48;52.79;100391.22;146601;637;46019;-68
2022/08/30 00:59:52;;;;;;;;;15.50;12.75;;;;;25.32;52.64;100691.00;146606;623;46018;-69
2022/08/30 01:02:51;;;;;;;;;14.50;14.25;;;;;25.37;52.71;100693.63;146598;576;46018;-67
2022/08/30 01:05:50;;;;;;;;;14.75;13.50;;;;;25.39;52.79;100687.44;146605;564;46019;-68
2022/08/30 01:09:12;;;;;;;;;14.75;13.50;;;;;23.56;52.77;100377.06;146604;617;46018;-68
2022/08/30 01:12:16;;;;;;;;;17.00;14.00;;;;;25.27;53.26;100693.72;146601;566;47020;-69
2022/08/30 01:15:23;;;;;;;;;16.00;15.50;;;;;25.20;53.53;100685.81;146600;573;46019;-69
2022/08/30 01:18:21;;;;;;;;;17.50;14.00;;;;;25.24;54.15;100695.53;146608;573;46016;-67
2022/08/30 01:22:04;;;;;;;;;15.75;14.25;;;;;23.84;53.02;100463.38;146603;589;47010;-68
2022/08/30 01:25:00;;;;;;;;;15.75;14.50;;;;;25.15;53.94;100691.19;146607;619;46008;-66
2022/08/30 01:28:04;;;;;;;;;17.25;14.00;;;;;25.11;53.89;100692.97;146603;623;47012;-68
2022/08/30 01:31:10;;;;;;;;;13.50;13.50;;;;;25.03;54.01;100685.94;146606;570;46008;-67
2022/08/30 01:34:18;;;;;;;;;16.00;14.50;;;;;24.93;54.32;100689.59;146606;638;46011;-67
2022/08/30 01:37:21;;;;;;;;;12.75;11.50;;;;;24.87;54.53;100687.84;146603;563;46019;-67
2022/08/30 01:40:21;;;;;;;;;15.00;13.00;;;;;24.77;55.05;100694.13;146603;674;46018;-66
2022/08/30 01:43:15;;;;;;;;;14.75;13.50;;;;;24.63;55.17;100687.13;146602;577;47008;-67
2022/08/30 01:46:14;;;;;;;;;15.25;14.75;;;;;24.57;55.27;100700.44;146601;571;46035;-68
2022/08/30 01:49:29;;;;;;;;;18.50;14.75;;;;;22.74;54.83;100388.09;146606;637;46019;-68
2022/08/30 01:52:34;;;;;;;;;19.50;14.25;;;;;24.54;56.10;100695.16;146602;580;46018;-67
2022/08/30 01:55:41;;;;;;;;;18.00;15.25;;;;;24.51;55.67;100695.16;146605;607;46018;-67
2022/08/30 01:58:36;;;;;;;;;8.25;7.50;;;;;24.50;56.02;100698.72;146605;583;46915;-67
2022/08/30 02:01:41;;;;;;;;;14.75;13.25;;;;;24.40;56.11;100695.22;146607;593;46018;-67
2022/08/30 02:04:57;;;;;;;;;;;;;;;;;;;;;
2022/08/30 02:08:01;;;;;;;;;15.25;13.75;;;;;22.45;56.65;100382.87;146607;665;46018;-68
2022/08/30 02:10:58;;;;;;;;;15.25;14.00;;;;;24.18;57.84;100686.50;146603;565;46018;-69
2022/08/30 02:14:22;;;;;;;;;15.75;12.75;;;;;24.10;56.47;100696.25;146606;725;47010;-71
2022/08/30 02:17:18;;;;;;;;;19.50;14.25;;;;;24.05;56.89;100694.50;146603;581;46033;-70
2022/08/30 02:20:20;;;;;;;;;15.50;12.00;;;;;24.04;56.69;100698.06;146607;613;46018;-69
2022/08/30 02:23:16;;;;;;;;;13.75;13.00;;;;;24.03;57.10;100694.53;146606;670;46010;-68
2022/08/30 02:26:11;;;;;;;;;16.50;12.50;;;;;23.98;57.11;100691.00;146606;565;46019;-67
2022/08/30 02:29:34;;;;;;;;;16.00;12.50;;;;;21.94;56.25;100350.38;146601;581;46018;-71
2022/08/30 02:32:44;;;;;;;;;16.00;14.25;;;;;23.94;57.24;100687.50;146608;684;46018;-68
2022/08/30 02:35:50;;;;;;;;;15.25;14.00;;;;;23.92;56.86;100689.25;146605;583;47011;-69
2022/08/30 02:38:46;;;;;;;;;13.75;12.75;;;;;23.89;57.85;100681.31;146606;607;46018;-68
2022/08/30 02:41:48;;;;;;;;;14.00;10.75;;;;;23.84;56.70;100691.06;146604;599;46019;-67
2022/08/30 02:45:07;;;;;;;;;;;;;;;;;;;;;
2022/08/30 02:48:00;;;;;;;;;14.00;11.25;;;;;23.88;56.72;100694.59;146603;716;46018;-67
2022/08/30 02:50:59;;;;;;;;;12.75;11.75;;;;;23.92;56.46;100698.97;146608;701;46019;-68
2022/08/30 02:53:51;;;;;;;;;15.50;14.00;;;;;23.95;56.66;100702.50;146606;603;46010;-68
2022/08/30 02:57:03;;;;;;;;;19.00;16.00;;;;;23.97;56.87;100697.22;146601;578;46018;-69
2022/08/30 03:00:02;;;;;;;;;14.75;12.50;;;;;24.07;56.22;100703.34;146605;573;46018;-70
2022/08/30 03:03:06;;;;;;;;;16.25;15.00;;;;;24.13;56.24;100713.91;146607;569;46008;-68
2022/08/30 03:06:14;;;;;;;;;12.25;12.00;;;;;22.40;55.48;100400.53;146605;569;46010;-68
2022/08/30 03:09:07;;;;;;;;;14.00;12.67;;;;;24.24;56.46;100706.81;146609;662;46018;-70
2022/08/30 03:12:03;;;;;;;;;14.75;13.75;;;;;24.26;55.73;100714.72;146596;634;49012;-69
2022/08/30 03:14:59;;;;;;;;;15.00;13.00;;;;;24.23;56.56;100715.63;146604;590;46917;-67
2022/08/30 03:17:52;;;;;;;;;14.00;12.75;;;;;24.13;57.00;100716.56;146600;578;47013;-70
2022/08/30 03:20:53;;;;;;;;;15.00;14.50;;;;;24.07;57.04;100713.94;146604;584;47018;-69
2022/08/30 03:23:52;;;;;;;;;16.50;14.75;;;;;24.00;57.35;100713.09;146605;611;46018;-69
2022/08/30 03:26:44;;;;;;;;;17.75;15.75;;;;;23.94;57.94;100719.28;146607;683;46019;-68
2022/08/30 03:29:49;;;;;;;;;13.50;13.50;;;;;23.87;58.14;100714.91;146604;637;46018;-71
2022/08/30 03:32:44;;;;;;;;;14.00;13.50;;;;;23.83;58.50;100714.91;146607;669;46008;-73
2022/08/30 03:35:39;;;;;;;;;15.50;14.00;;;;;23.85;58.84;100715.78;146602;570;46018;-69
2022/08/30 03:38:39;;;;;;;;;16.25;15.00;;;;;23.84;59.51;100709.62;146603;582;46917;-67
2022/08/30 03:41:39;;;;;;;;;15.75;13.75;;;;;23.00;58.13;100575.72;146605;564;46012;-70
2022/08/30 03:44:37;;;;;;;;;18.00;14.00;;;;;23.05;58.93;100581.00;146608;570;46008;-68
2022/08/30 03:47:37;;;;;;;;;16.25;14.25;;;;;23.03;59.12;100577.50;146606;607;46018;-66
2022/08/30 03:50:30;;;;;;;;;19.00;15.50;;;;;23.11;58.20;100590.69;146607;604;46018;-68
2022/08/30 03:53:27;;;;;;;;;13.25;11.25;;;;;23.85;58.25;100721.09;146604;603;46018;-68
2022/08/30 03:56:21;;;;;;;;;16.50;14.50;;;;;23.91;58.05;100731.66;146605;578;46008;-68
2022/08/30 03:59:32;;;;;;;;;15.00;14.00;;;;;23.90;58.36;100729.91;146598;575;47915;-67
2022/08/30 04:02:27;;;;;;;;;16.75;14.75;;;;;23.85;59.05;100732.56;146605;642;46008;-67
2022/08/30 04:05:25;;;;;;;;;15.00;14.75;;;;;23.80;58.95;100734.34;146602;597;46018;-67
2022/08/30 04:08:28;;;;;;;;;17.75;14.25;;;;;23.82;58.26;100735.22;146604;709;46008;-67
2022/08/30 04:11:31;;;;;;;;;15.00;13.00;;;;;23.86;58.48;100744.94;146606;597;46019;-67
2022/08/30 04:14:41;;;;;;;;;16.50;15.25;;;;;23.92;58.05;100747.53;146606;647;46018;-69
2022/08/30 04:17:46;;;;;;;;;16.00;12.00;;;;;23.92;58.09;100750.16;146604;637;46915;-70
2022/08/30 04:20:41;;;;;;;;;17.75;14.75;;;;;23.88;58.57;100745.78;146609;686;46008;-76
2022/08/30 04:23:43;;;;;;;;;14.25;13.50;;;;;23.90;58.84;100748.44;146603;586;46018;-72
2022/08/30 04:26:37;;;;;;;;;17.25;14.50;;;;;23.90;58.42;100749.31;146606;573;46008;-72
2022/08/30 04:29:37;;;;;;;;;16.00;15.00;;;;;23.97;59.10;100759.00;146606;576;46018;-73
2022/08/30 04:32:32;;;;;;;;;16.00;13.50;;;;;24.04;58.29;100757.19;146607;631;46018;-75
2022/08/30 04:35:29;;;;;;;;;16.75;15.00;;;;;24.14;58.23;100753.66;146603;590;46012;-73
2022/08/30 04:38:22;;;;;;;;;15.00;14.75;;;;;24.34;58.08;100750.03;146605;573;46018;-72
2022/08/30 04:41:19;;;;;;;;;14.75;13.75;;;;;24.44;58.75;100754.41;146606;574;46019;-75
2022/08/30 04:44:15;;;;;;;;;14.75;13.00;;;;;24.58;57.96;100754.31;146605;630;46018;-75
2022/08/30 04:47:30;;;;;;;;;13.75;12.00;;;;;24.81;57.94;100765.69;146602;564;46018;-76
2022/08/30 04:50:25;;;;;;;;;13.75;12.50;;;;;25.01;56.49;100765.53;146602;699;49008;-75
2022/08/30 04:53:22;;;;;;;;;11.25;11.25;;;;;25.17;56.04;100761.06;146604;691;46018;-76
2022/08/30 04:56:27;;;;;;;;;12.00;12.00;;;;;25.36;54.82;100767.09;146607;586;46019;-76
2022/08/30 04:59:23;;;;;;;;;15.25;12.25;;;;;25.48;54.90;100774.03;146602;574;47010;-74
2022/08/30 05:02:21;;;;;;;;;13.00;12.00;;;;;25.57;54.55;100772.16;146613;569;46019;-74
2022/08/30 05:05:45;;;;;;;;;14.75;13.25;;;;;23.73;53.23;100444.91;146611;570;46915;-75
2022/08/30 05:08:43;;;;;;;;;12.50;11.50;;;;;25.86;53.68;100772.78;146613;626;46018;-74
2022/08/30 05:11:45;;;;;;;;;13.00;13.00;;;;;26.08;53.06;100779.66;146604;584;46019;-73
2022/08/30 05:14:46;;;;;;;;;10.00;10.00;;;;;26.33;52.17;100782.87;146610;686;46018;-75
2022/08/30 05:17:47;;;;;;;;;11.50;10.25;;;;;26.64;52.26;100785.19;146607;636;46019;-78
2022/08/30 05:20:42;;;;;;;;;13.25;11.50;;;;;26.91;51.45;100782.09;146617;670;46008;-78
2022/08/30 05:23:58;;;;;;;;;10.75;10.75;;;;;27.19;51.02;100779.03;146612;636;46018;-77
2022/08/30 05:26:56;;;;;;;;;12.75;11.75;;;;;27.44;50.57;100786.59;146613;563;46018;-79
2022/08/30 05:29:57;;;;;;;;;13.50;11.25;;;;;27.60;49.75;100781.00;146613;688;45915;-74
2022/08/30 05:33:18;;;;;;;;;;;;;;;;;;;;;
2022/08/30 05:36:22;;;;;;;;;13.25;10.00;;;;;27.97;49.99;100784.78;146612;691;46012;-73
2022/08/30 05:39:16;;;;;;;;;14.50;13.00;;;;;28.12;49.54;100783.59;146612;666;47008;-75
2022/08/30 05:42:26;;;;;;;;;12.00;11.00;;;;;28.27;49.25;100788.63;146610;577;46018;-74
2022/08/30 05:45:27;;;;;;;;;11.25;11.00;;;;;28.39;49.60;100791.03;146614;569;46018;-70
2022/08/30 05:48:23;;;;;;;;;11.00;10.00;;;;;28.52;49.04;100789.87;146608;675;47010;-70
2022/08/30 05:51:24;;;;;;;;;15.50;14.00;;;;;28.67;48.09;100796.66;146614;574;46012;-70
2022/08/30 05:54:29;;;;;;;;;13.75;11.25;;;;;28.76;48.45;100788.47;146608;564;46026;-72
2022/08/30 05:57:30;;;;;;;;;13.25;11.00;;;;;28.86;48.65;100788.25;146615;686;46018;-72
2022/08/30 06:00:36;;;;;;;;;17.75;15.75;;;;;28.96;47.97;100795.12;146608;662;46010;-72
2022/08/30 06:03:37;;;;;;;;;16.75;16.25;;;;;29.05;48.93;100794.94;146608;572;46008;-76
2022/08/30 06:06:57;;;;;;;;;19.75;19.75;;;;;29.20;48.17;100793.69;146602;619;46018;-68
2022/08/30 06:09:53;;;;;;;;;20.00;18.50;;;;;29.32;47.62;100798.72;146607;635;45019;-69
2022/08/30 06:12:46;;;;;;;;;16.50;15.75;;;;;29.41;47.76;100803.84;146603;594;46010;-74
2022/08/30 06:15:42;;;;;;;;;15.75;14.00;;;;;29.43;46.80;100799.31;146600;565;46008;-73
2022/08/30 06:18:47;;;;;;;;;13.25;12.75;;;;;29.43;47.52;100798.44;146603;609;46018;-85
2022/08/30 06:21:53;;;;;;;;;15.75;14.00;;;;;29.42;47.55;100810.91;146603;590;46008;-73
2022/08/30 06:24:50;;;;;;;;;15.00;13.50;;;;;29.40;47.59;100802.06;146606;681;46019;-73
2022/08/30 06:27:48;;;;;;;;;15.75;13.50;;;;;29.45;47.42;100805.50;146606;577;46018;-72
2022/08/30 06:30:46;;;;;;;;;14.00;13.75;;;;;29.56;48.74;100807.00;146602;637;46915;-74
2022/08/30 06:33:52;;;;;;;;;11.75;11.00;;;;;29.75;46.05;100810.09;146608;615;46018;-74
2022/08/30 06:36:59;;;;;;;;;8.50;8.50;;;;;29.85;46.32;100817.84;146606;575;46010;-73
2022/08/30 06:39:56;;;;;;;;;13.25;12.25;;;;;29.98;46.45;100826.41;146606;626;46018;-74
2022/08/30 06:42:54;;;;;;;;;13.50;12.00;;;;;30.05;47.68;100822.66;146605;605;46018;-76
2022/08/30 06:45:54;;;;;;;;;13.00;11.75;;;;;30.07;46.89;100819.94;146603;569;46018;-74
2022/08/30 06:48:53;;;;;;;;;14.50;14.25;;;;;30.15;48.13;100818.78;146599;595;46035;-73
2022/08/30 06:51:49;;;;;;;;;13.25;12.75;;;;;30.27;48.46;100828.28;146608;666;46008;-73
2022/08/30 06:55:02;;;;;;;;;15.50;14.50;;;;;30.41;47.34;100827.91;146604;565;46019;-75
2022/08/30 06:58:00;;;;;;;;;15.00;15.00;;;;;30.53;48.32;100826.66;146606;572;46026;-75
2022/08/30 07:00:54;;;;;;;;;18.00;16.00;;;;;30.69;47.55;100825.28;146606;614;47010;-75
2022/08/30 07:03:47;;;;;;;;;18.25;14.50;;;;;30.86;47.24;100827.47;146607;618;46012;-76
2022/08/30 07:06:54;;;;;;;;;10.50;10.50;;;;;30.99;47.14;100818.12;146603;630;46012;-75
2022/08/30 07:09:49;;;;;;;;;15.00;13.75;;;;;31.09;47.38;100823.16;146605;687;46008;-77
2022/08/30 07:12:51;;;;;;;;;17.50;15.75;;;;;31.17;47.04;100824.69;146604;564;46012;-76
2022/08/30 07:16:00;;;;;;;;;16.50;15.00;;;;;29.74;46.74;100571.38;146604;576;46013;-74
2022/08/30 07:18:57;;;;;;;;;18.25;14.75;;;;;31.39;45.15;100837.41;146604;574;46018;-75
2022/08/30 07:21:53;;;;;;;;;14.00;14.00;;;;;31.44;44.92;100843.50;146603;599;46018;-76
2022/08/30 07:24:52;;;;;;;;;13.00;12.50;;;;;31.50;45.51;100841.50;146605;687;46031;-73
2022/08/30 07:27:57;;;;;;;;;;;;;;;;;;;;;
2022/08/30 07:30:58;;;;;;;;;20.00;16.25;;;;;31.55;44.90;100844.00;146601;585;46018;-77
2022/08/30 07:33:51;;;;;;;;;17.00;16.00;;;;;31.59;45.18;100843.00;146607;591;46012;-76
2022/08/30 07:36:57;;;;;;;;;17.00;14.50;;;;;31.66;44.59;100847.19;146599;614;46018;-75
2022/08/30 07:40:04;;;;;;;;;;;;;;;;;;;;;
2022/08/30 07:43:14;;;;;;;;;;;;;;;;;;;;;
2022/08/30 07:46:23;;;;;;;;;18.75;15.50;;;;;31.48;46.54;100850.50;146605;726;46019;-76
2022/08/30 07:49:19;;;;;;;;;17.75;14.75;;;;;31.57;45.42;100849.31;146603;576;46018;-74
2022/08/30 07:52:23;;;;;;;;;15.25;12.00;;;;;31.67;45.20;100843.59;146607;682;46018;-75
2022/08/30 07:55:15;;;;;;;;;15.00;14.25;;;;;31.74;45.22;100853.16;146603;607;46019;-75
2022/08/30 07:58:10;;;;;;;;;16.75;14.00;;;;;31.83;45.23;100843.91;146606;662;46018;-76
2022/08/30 08:01:08;;;;;;;;;15.25;13.50;;;;;31.94;45.33;100852.50;146624;579;45916;-73
2022/08/30 08:04:02;;;;;;;;;15.00;13.25;;;;;32.05;44.89;100848.56;146628;583;45018;-74
2022/08/30 08:06:56;;;;;;;;;13.50;13.50;;;;;32.10;44.30;100855.50;146623;590;45913;-76
2022/08/30 08:09:51;;;;;;;;;15.00;12.50;;;;;32.06;44.02;100861.94;146625;652;45019;-72
2022/08/30 08:13:01;;;;;;;;;;;;;;;;;;;;;
2022/08/30 08:16:00;;;;;;;;;14.50;12.50;;;;;31.85;44.38;100863.53;146628;601;45028;-77
2022/08/30 08:18:55;;;;;;;;;14.00;14.00;;;;;31.83;46.06;100862.69;146624;612;45913;-72
2022/08/30 08:21:58;;;;;;;;;15.25;14.50;;;;;31.85;46.26;100860.84;146626;585;45018;-72
2022/08/30 08:25:00;;;;;;;;;18.00;16.00;;;;;31.92;45.33;100854.34;146628;569;45019;-78
2022/08/30 08:28:06;;;;;;;;;17.25;16.25;;;;;31.80;45.29;100860.13;146630;605;45018;-73
2022/08/30 08:30:59;;;;;;;;;16.25;15.00;;;;;31.59;45.46;100853.72;146624;613;45039;-82
2022/08/30 08:34:06;;;;;;;;;14.25;13.75;;;;;31.41;46.57;100863.22;146628;586;45018;-73
2022/08/30 08:37:07;;;;;;;;;12.00;12.00;;;;;31.41;45.72;100855.19;146626;569;45913;-72
2022/08/30 08:40:22;;;;;;;;;12.25;10.75;;;;;30.01;44.73;100606.22;146630;674;45018;-75
2022/08/30 08:43:35;;;;;;;;;;;;;;;;;;;;;
2022/08/30 08:47:12;;;;;;;;;;;;;;;;;;;;;
2022/08/30 08:50:27;;;;;;;;;16.25;16.25;;;;;31.71;44.90;100852.38;146623;593;46018;-75
2022/08/30 08:53:40;;;;;;;;;14.00;13.75;;;;;31.70;44.79;100858.69;146629;566;45010;-70
2022/08/30 08:56:40;;;;;;;;;13.00;12.50;;;;;31.64;44.66;100853.53;146624;577;46012;-72
2022/08/30 08:59:45;;;;;;;;;13.50;13.25;;;;;30.06;44.21;100585.53;146621;634;46008;-73
2022/08/30 09:03:10;;;;;;;;;16.25;14.25;;;;;31.73;44.18;100851.41;146608;622;46018;-70
2022/08/30 09:06:57;;;;;;;;;15.75;14.75;;;;;31.94;44.62;100854.31;146607;646;46018;-71
2022/08/30 09:10:06;;;;;;;;;;;;;;;;;;;;;
2022/08/30 09:13:13;;;;;;;;;14.75;13.75;;;;;32.13;40.74;100846.50;146612;672;46018;-72
2022/08/30 09:16:18;;;;;;;;;;;;;;;;;;;;;
2022/08/30 09:19:40;;;;;;;;;14.75;14.75;;;;;32.42;43.51;100842.72;146613;581;46018;-71
2022/08/30 09:22:52;;;;;;;;;17.75;15.25;;;;;32.74;43.17;100843.31;146606;643;46019;-73
2022/08/30 09:26:06;;;;;;;;;15.25;14.25;;;;;31.46;41.46;100579.03;146612;569;46018;-71
2022/08/30 09:29:04;;;;;;;;;16.75;15.50;;;;;32.40;39.06;100734.53;146610;595;46018;-72
2022/08/30 09:32:00;;;;;;;;;14.50;13.75;;;;;32.86;38.35;100826.72;146615;702;46008;-73
2022/08/30 09:35:03;;;;;;;;;16.25;14.00;;;;;32.75;38.38;100839.72;146609;652;46913;-72
2022/08/30 09:38:44;;;;;;;;;18.00;16.25;;;;;31.04;39.57;100580.50;146614;628;46012;-71
2022/08/30 09:42:13;;;;;;;;;16.75;16.75;;;;;32.33;41.17;100825.16;146608;609;46018;-71
2022/08/30 09:45:20;;;;;;;;;13.00;13.00;;;;;32.35;41.75;100827.78;146613;579;46019;-72
2022/08/30 09:48:51;;;;;;;;;15.75;14.00;;;;;32.50;42.78;100829.94;146605;587;46018;-71
2022/08/30 09:52:29;;;;;;;;;17.75;17.75;;;;;31.27;42.18;100573.44;146614;585;46008;-72
2022/08/30 09:56:20;;;;;;;;;15.25;14.50;;;;;31.42;40.57;100559.50;146607;611;46012;-71
2022/08/30 10:00:04;;;;;;;;;16.50;15.00;;;;;31.56;38.76;100561.69;146614;630;46019;-72
2022/08/30 10:03:29;;;;;;;;;10.00;10.00;;;;;32.97;38.08;100812.87;146603;591;46018;-71
2022/08/30 10:06:56;;;;;;;;;10.25;9.00;;;;;32.86;40.60;100806.09;146607;576;46008;-71
2022/08/30 10:10:29;;;;;;;;;14.25;14.25;;;;;31.42;41.70;100550.59;146605;581;46010;-71
2022/08/30 10:14:10;;;;;;;;;11.00;10.50;;;;;33.07;39.12;100799.03;146609;649;46008;-71
2022/08/30 10:17:52;;;;;;;;;15.75;14.00;;;;;33.18;41.32;100806.66;146602;631;46018;-71
2022/08/30 10:21:24;;;;;;;;;17.00;15.25;;;;;33.29;39.29;100803.53;146607;599;46018;-71
2022/08/30 10:24:28;;;;;;;;;16.25;15.00;;;;;33.20;39.55;100802.09;146603;570;46018;-71
2022/08/30 10:28:05;;;;;;;;;14.75;14.00;;;;;31.70;41.12;100550.41;146607;578;47008;-72
2022/08/30 10:31:23;;;;;;;;;15.50;13.75;;;;;33.24;39.78;100797.44;146605;699;46018;-71
2022/08/30 10:34:30;;;;;;;;;14.75;12.00;;;;;33.27;37.85;100792.84;146600;599;47008;-72
2022/08/30 10:37:47;;;;;;;;;15.25;14.00;;;;;33.33;38.44;100802.44;146604;653;46018;-70
2022/08/30 10:44:35;;;;;;;;;17.25;15.00;;;;;31.82;39.95;100533.84;146605;604;46019;-71
2022/08/30 10:48:27;;;;;;;;;13.00;13.00;;;;;31.83;39.48;100537.41;146608;603;46025;-71
2022/08/30 10:51:53;;;;;;;;;14.50;12.75;;;;;33.24;39.08;100776.84;146606;579;46010;-72
2022/08/30 10:55:12;;;;;;;;;15.00;14.25;;;;;33.14;40.06;100772.78;146606;643;46018;-72
2022/08/30 10:58:24;;;;;;;;;14.50;14.50;;;;;31.58;39.26;100511.56;146605;621;46915;-71
2022/08/30 11:02:12;;;;;;;;;15.25;14.25;;;;;33.08;40.55;100763.16;146627;600;45018;-71
2022/08/30 11:05:45;;;;;;;;;16.50;15.25;;;;;33.17;41.10;100763.72;146623;566;46012;-69
2022/08/30 11:09:27;;;;;;;;;17.25;13.00;;;;;33.40;40.53;100758.25;146629;602;45010;-69
2022/08/30 11:12:58;;;;;;;;;14.50;12.75;;;;;31.80;38.52;100449.91;146626;681;46011;-70
2022/08/30 11:16:01;;;;;;;;;19.25;16.75;;;;;33.71;39.94;100747.06;146632;689;45010;-69
2022/08/30 11:19:04;;;;;;;;;15.25;15.25;;;;;33.85;39.77;100754.50;146624;653;45018;-70
2022/08/30 11:22:23;;;;;;;;;16.00;14.50;;;;;33.93;39.21;100740.72;146627;590;46008;-70
2022/08/30 11:25:49;;;;;;;;;15.75;15.75;;;;;34.00;39.81;100742.19;146626;566;46010;-69
2022/08/30 11:29:10;;;;;;;;;16.50;14.50;;;;;32.45;39.19;100474.97;146621;633;46006;-69
2022/08/30 11:32:43;;;;;;;;;15.25;15.25;;;;;33.94;38.94;100739.75;146624;670;46012;-70
2022/08/30 11:36:04;;;;;;;;;;;;;;;;;;;;;
2022/08/30 11:39:38;;;;;;;;;15.75;14.00;;;;;33.12;39.38;100583.94;146626;594;45913;-69
2022/08/30 11:42:54;;;;;;;;;18.00;17.25;;;;;32.69;38.56;100491.81;146632;617;45010;-70
2022/08/30 11:45:55;;;;;;;;;15.75;14.75;;;;;34.17;37.90;100728.81;146623;578;46018;-69
2022/08/30 11:49:13;;;;;;;;;16.25;15.25;;;;;34.23;38.09;100724.97;146627;564;45018;-69
2022/08/30 11:52:40;;;;;;;;;19.00;15.75;;;;;34.26;39.67;100717.63;146626;610;45914;-69
2022/08/30 11:56:28;;;;;;;;;14.00;14.00;;;;;32.86;39.00;100466.88;146628;622;45018;-70
2022/08/30 12:00:05;;;;;;;;;17.50;14.75;;;;;32.92;39.04;100471.97;146620;582;46012;-69
2022/08/30 12:03:32;;;;;;;;;16.00;15.50;;;;;33.01;39.09;100471.56;146606;612;46018;-70
2022/08/30 12:06:51;;;;;;;;;18.75;16.00;;;;;34.38;38.36;100705.41;146603;586;46019;-69
2022/08/30 12:10:04;;;;;;;;;18.00;15.75;;;;;34.25;38.39;100701.56;146607;563;46018;-70
2022/08/30 12:12:57;;;;;;;;;15.75;14.25;;;;;34.13;37.04;100697.63;146602;614;46012;-70
2022/08/30 12:16:15;;;;;;;;;19.00;16.75;;;;;34.12;38.69;100703.09;146605;614;46018;-69
2022/08/30 12:19:26;;;;;;;;;15.25;14.50;;;;;34.13;37.26;100699.47;146606;572;46019;-69
2022/08/30 12:22:32;;;;;;;;;;;;;;;;;;;;;
2022/08/30 12:25:39;;;;;;;;;14.75;13.50;;;;;33.90;38.58;100689.75;146604;620;46018;-69
2022/08/30 12:28:33;;;;;;;;;17.00;16.00;;;;;33.84;38.86;100690.91;146608;617;45919;-68
2022/08/30 12:31:35;;;;;;;;;12.00;11.75;;;;;33.90;38.21;100689.75;146598;675;48018;-70
2022/08/30 12:34:52;;;;;;;;;14.25;13.00;;;;;33.93;37.55;100682.41;146607;690;46009;-69
2022/08/30 12:38:00;;;;;;;;;19.00;16.75;;;;;33.99;35.55;100676.75;146605;602;46911;-69
2022/08/30 12:41:05;;;;;;;;;17.50;14.75;;;;;33.99;38.21;100687.50;146608;571;45571;-72
2022/08/30 12:44:08;;;;;;;;;16.00;13.75;;;;;33.95;37.68;100691.25;146603;620;46019;-70
2022/08/30 12:47:31;;;;;;;;;;;;;;;;;;;;;
2022/08/30 12:50:32;;;;;;;;;18.75;16.75;;;;;33.38;36.94;100687.56;146603;622;46019;-74
2022/08/30 12:53:45;;;;;;;;;17.00;14.00;;;;;33.06;38.50;100695.22;146607;563;46018;-74
2022/08/30 12:57:06;;;;;;;;;15.75;15.75;;;;;32.79;41.17;100689.16;146604;574;46031;-73
2022/08/30 13:00:04;;;;;;;;;18.75;17.25;;;;;32.41;39.52;100679.97;146610;582;47008;-74
2022/08/30 13:03:13;;;;;;;;;;;;;;;;;;;;;
2022/08/30 13:06:11;;;;;;;;;17.50;14.50;;;;;31.90;44.64;100667.63;146610;574;46008;-73
2022/08/30 13:09:04;;;;;;;;;15.75;14.50;;;;;31.69;44.34;100664.81;146608;599;46018;-75
2022/08/30 13:12:01;;;;;;;;;11.00;9.50;;;;;31.44;47.08;100664.84;146610;564;46019;-73
2022/08/30 13:14:55;;;;;;;;;17.75;14.25;;;;;31.32;47.59;100673.28;146607;583;46029;-71
2022/08/30 13:18:38;;;;;;;;;13.75;13.00;;;;;31.26;46.71;100663.66;146615;580;46013;-74
2022/08/30 13:21:59;;;;;;;;;15.00;13.75;;;;;31.24;48.28;100670.84;146604;597;46018;-73
2022/08/30 13:25:01;;;;;;;;;14.25;13.50;;;;;31.12;47.11;100671.28;146610;627;46019;-73
2022/08/30 13:27:53;;;;;;;;;16.50;16.50;;;;;30.99;47.96;100670.84;146610;627;46019;-72
2022/08/30 13:30:50;;;;;;;;;15.00;12.75;;;;;30.87;46.89;100663.22;146612;569;46018;-72
2022/08/30 13:33:51;;;;;;;;;12.25;12.25;;;;;30.85;47.05;100661.53;146612;715;46018;-72
2022/08/30 13:37:08;;;;;;;;;16.75;15.00;;;;;30.84;46.04;100647.25;146613;581;46018;-70
2022/08/30 13:40:01;;;;;;;;;14.25;13.25;;;;;30.87;46.05;100647.16;146610;722;46018;-71
2022/08/30 13:42:54;;;;;;;;;16.75;16.50;;;;;30.92;45.77;100649.69;146612;615;46010;-73
2022/08/30 13:46:03;;;;;;;;;;;;;;;;;;;;;
2022/08/30 13:49:09;;;;;;;;;16.25;16.25;;;;;31.04;45.09;100651.94;146614;602;46010;-73
2022/08/30 13:52:24;;;;;;;;;14.75;14.50;;;;;31.10;45.37;100653.53;146607;628;47012;-71
2022/08/30 13:55:28;;;;;;;;;16.50;14.75;;;;;31.02;44.94;100645.75;146605;580;46034;-72
2022/08/30 13:58:43;;;;;;;;;15.00;15.00;;;;;29.90;45.73;100460.37;146606;723;46018;-75
2022/08/30 14:01:48;;;;;;;;;15.25;15.25;;;;;30.92;46.51;100644.34;146628;575;46008;-76
2022/08/30 14:04:47;;;;;;;;;15.75;15.00;;;;;30.94;45.91;100647.84;146624;625;45018;-79
2022/08/30 14:07:40;;;;;;;;;16.50;13.75;;;;;30.94;45.55;100648.72;146631;574;45010;-81
2022/08/30 14:10:39;;;;;;;;;15.75;12.50;;;;;30.96;44.94;100646.84;146621;571;45916;-79
2022/08/30 14:13:31;;;;;;;;;15.00;15.00;;;;;31.02;44.11;100648.44;146629;563;45010;-73
2022/08/30 14:16:33;;;;;;;;;17.00;14.25;;;;;31.06;44.85;100653.66;146627;614;46010;-74
2022/08/30 14:19:31;;;;;;;;;16.25;14.00;;;;;31.10;45.14;100657.09;146626;609;46008;-75
2022/08/30 14:22:30;;;;;;;;;15.00;13.25;;;;;31.10;44.46;100653.53;146624;595;45018;-68
2022/08/30 14:25:27;;;;;;;;;13.25;13.00;;;;;31.07;45.51;100654.53;146630;670;45019;-76
2022/08/30 14:28:43;;;;;;;;;15.00;14.50;;;;;31.08;46.14;100650.03;146623;621;45018;-72
2022/08/30 14:31:44;;;;;;;;;16.75;13.75;;;;;31.11;46.01;100663.31;146629;631;46008;-71
2022/08/30 14:34:36;;;;;;;;;12.50;12.50;;;;;31.15;46.13;100662.28;146624;610;45030;-73
2022/08/30 14:37:34;;;;;;;;;13.75;11.75;;;;;31.15;45.16;100679.22;146628;715;45008;-72
2022/08/30 14:40:42;;;;;;;;;15.00;13.25;;;;;29.80;45.65;100461.63;146622;617;46011;-72
2022/08/30 14:43:39;;;;;;;;;15.75;13.00;;;;;31.08;48.39;100688.41;146631;592;46008;-72